sensor_id;sensor_type;location;lat;lon;timestamp;P1;durP1;ratioP1;P2;durP2;ratioP2
28007;SDS011;15333;50.010;20.020;2022-10-16T00:01:46;24.10;;;17.20;;
28007;SDS011;15333;50.010;20.020;2022-10-16T00:04:47;25.83;;;16.45;;
28007;SDS011;15333;50.010;20.020;2022-10-16T00:07:48;25.80;;;18.08;;
28007;SDS011;15333;50.010;20.020;2022-10-16T00:10:48;25.65;;;17.83;;
28007;SDS011;15333;50.010;20.020;2022-10-16T00:13:50;33.55;;;17.73;;
28007;SDS011;15333;50.010;20.020;2022-10-16T00:16:54;25.48;;;17.50;;
28007;SDS011;15333;50.010;20.020;2022-10-16T00:19:55;30.83;;;18.05;;
28007;SDS011;15333;50.010;20.020;2022-10-16T00:22:57;25.73;;;17.92;;
28007;SDS011;15333;50.010;20.020;2022-10-16T00:25:59;33.35;;;18.67;;
28007;SDS011;15333;50.010;20.020;2022-10-16T00:29:05;23.35;;;17.63;;
28007;SDS011;15333;50.010;20.020;2022-10-16T00:32:07;21.67;;;15.85;;
28007;SDS011;15333;50.010;20.020;2022-10-16T00:35:08;25.60;;;17.95;;
28007;SDS011;15333;50.010;20.020;2022-10-16T00:38:09;24.42;;;17.00;;
28007;SDS011;15333;50.010;20.020;2022-10-16T00:41:14;30.38;;;16.75;;
28007;SDS011;15333;50.010;20.020;2022-10-16T00:47:46;29.05;;;17.40;;
28007;SDS011;15333;50.010;20.020;2022-10-16T00:50:50;26.67;;;17.27;;
28007;SDS011;15333;50.010;20.020;2022-10-16T00:53:51;28.63;;;17.83;;
28007;SDS011;15333;50.010;20.020;2022-10-16T00:56:53;33.45;;;18.27;;
28007;SDS011;15333;50.010;20.020;2022-10-16T00:59:56;24.98;;;17.27;;
28007;SDS011;15333;50.010;20.020;2022-10-16T01:02:58;28.90;;;18.00;;
28007;SDS011;15333;50.010;20.020;2022-10-16T01:09:16;27.80;;;18.73;;
28007;SDS011;15333;50.010;20.020;2022-10-16T01:16:02;24.65;;;17.80;;
28007;SDS011;15333;50.010;20.020;2022-10-16T01:22:45;29.00;;;18.75;;
28007;SDS011;15333;50.010;20.020;2022-10-16T01:33:17;25.75;;;17.75;;
28007;SDS011;15333;50.010;20.020;2022-10-16T01:36:23;25.85;;;17.67;;
28007;SDS011;15333;50.010;20.020;2022-10-16T01:39:29;30.88;;;18.48;;
28007;SDS011;15333;50.010;20.020;2022-10-16T01:42:39;25.27;;;17.52;;
28007;SDS011;15333;50.010;20.020;2022-10-16T01:45:44;26.02;;;18.80;;
28007;SDS011;15333;50.010;20.020;2022-10-16T01:48:47;24.52;;;18.77;;
28007;SDS011;15333;50.010;20.020;2022-10-16T01:51:49;29.88;;;18.38;;
28007;SDS011;15333;50.010;20.020;2022-10-16T01:54:54;30.02;;;18.58;;
28007;SDS011;15333;50.010;20.020;2022-10-16T01:57:58;25.10;;;18.40;;
28007;SDS011;15333;50.010;20.020;2022-10-16T02:01:03;26.80;;;17.20;;
28007;SDS011;15333;50.010;20.020;2022-10-16T02:04:18;28.23;;;18.23;;
28007;SDS011;15333;50.010;20.020;2022-10-16T02:07:24;26.75;;;18.67;;
28007;SDS011;15333;50.010;20.020;2022-10-16T02:10:25;27.23;;;17.92;;
28007;SDS011;15333;50.010;20.020;2022-10-16T02:14:05;25.35;;;18.27;;
28007;SDS011;15333;50.010;20.020;2022-10-16T02:17:13;26.30;;;18.45;;
28007;SDS011;15333;50.010;20.020;2022-10-16T02:20:15;27.07;;;18.97;;
28007;SDS011;15333;50.010;20.020;2022-10-16T02:23:19;26.08;;;19.13;;
28007;SDS011;15333;50.010;20.020;2022-10-16T02:26:28;23.70;;;18.05;;
28007;SDS011;15333;50.010;20.020;2022-10-16T02:29:38;26.02;;;18.50;;
28007;SDS011;15333;50.010;20.020;2022-10-16T02:32:45;28.88;;;18.67;;
28007;SDS011;15333;50.010;20.020;2022-10-16T02:35:48;25.33;;;17.58;;
28007;SDS011;15333;50.010;20.020;2022-10-16T02:38:51;22.92;;;17.73;;
28007;SDS011;15333;50.010;20.020;2022-10-16T02:41:53;23.85;;;17.30;;
28007;SDS011;15333;50.010;20.020;2022-10-16T02:44:54;22.23;;;16.80;;
28007;SDS011;15333;50.010;20.020;2022-10-16T02:47:55;23.30;;;17.23;;
28007;SDS011;15333;50.010;20.020;2022-10-16T02:50:56;27.42;;;17.75;;
28007;SDS011;15333;50.010;20.020;2022-10-16T02:53:57;28.30;;;17.63;;
28007;SDS011;15333;50.010;20.020;2022-10-16T02:56:58;26.17;;;18.02;;
28007;SDS011;15333;50.010;20.020;2022-10-16T02:59:59;26.48;;;18.50;;
28007;SDS011;15333;50.010;20.020;2022-10-16T03:03:00;27.15;;;18.85;;
28007;SDS011;15333;50.010;20.020;2022-10-16T03:06:00;25.80;;;19.25;;
28007;SDS011;15333;50.010;20.020;2022-10-16T03:09:02;25.98;;;19.20;;
28007;SDS011;15333;50.010;20.020;2022-10-16T03:12:03;24.60;;;19.10;;
28007;SDS011;15333;50.010;20.020;2022-10-16T03:15:04;29.00;;;19.13;;
28007;SDS011;15333;50.010;20.020;2022-10-16T03:18:07;30.90;;;19.73;;
28007;SDS011;15333;50.010;20.020;2022-10-16T03:21:08;25.40;;;19.02;;
28007;SDS011;15333;50.010;20.020;2022-10-16T03:24:08;30.33;;;20.20;;
28007;SDS011;15333;50.010;20.020;2022-10-16T03:27:09;27.60;;;18.40;;
28007;SDS011;15333;50.010;20.020;2022-10-16T03:30:10;29.00;;;20.05;;
28007;SDS011;15333;50.010;20.020;2022-10-16T03:33:12;29.23;;;19.20;;
28007;SDS011;15333;50.010;20.020;2022-10-16T03:36:13;27.73;;;18.65;;
28007;SDS011;15333;50.010;20.020;2022-10-16T03:39:14;22.80;;;18.35;;
28007;SDS011;15333;50.010;20.020;2022-10-16T03:42:15;28.83;;;19.08;;
28007;SDS011;15333;50.010;20.020;2022-10-16T03:45:16;26.73;;;18.05;;
28007;SDS011;15333;50.010;20.020;2022-10-16T03:48:17;28.17;;;18.20;;
28007;SDS011;15333;50.010;20.020;2022-10-16T03:51:19;26.52;;;17.88;;
28007;SDS011;15333;50.010;20.020;2022-10-16T03:54:19;26.55;;;18.90;;
28007;SDS011;15333;50.010;20.020;2022-10-16T03:57:22;25.17;;;18.77;;
28007;SDS011;15333;50.010;20.020;2022-10-16T04:00:23;27.83;;;19.33;;
28007;SDS011;15333;50.010;20.020;2022-10-16T04:03:24;26.45;;;18.88;;
28007;SDS011;15333;50.010;20.020;2022-10-16T04:06:25;29.98;;;19.05;;
28007;SDS011;15333;50.010;20.020;2022-10-16T04:09:26;26.73;;;18.67;;
28007;SDS011;15333;50.010;20.020;2022-10-16T04:12:27;26.15;;;18.92;;
28007;SDS011;15333;50.010;20.020;2022-10-16T04:15:28;27.42;;;18.00;;
28007;SDS011;15333;50.010;20.020;2022-10-16T04:18:29;26.60;;;18.33;;
28007;SDS011;15333;50.010;20.020;2022-10-16T04:21:30;27.42;;;19.02;;
28007;SDS011;15333;50.010;20.020;2022-10-16T04:24:30;29.02;;;18.77;;
28007;SDS011;15333;50.010;20.020;2022-10-16T04:27:31;29.27;;;19.25;;
28007;SDS011;15333;50.010;20.020;2022-10-16T04:30:32;31.33;;;20.55;;
28007;SDS011;15333;50.010;20.020;2022-10-16T04:33:34;26.88;;;19.45;;
28007;SDS011;15333;50.010;20.020;2022-10-16T04:36:35;27.38;;;20.63;;
28007;SDS011;15333;50.010;20.020;2022-10-16T04:39:35;28.85;;;21.63;;
28007;SDS011;15333;50.010;20.020;2022-10-16T04:42:36;31.45;;;21.55;;
28007;SDS011;15333;50.010;20.020;2022-10-16T04:45:37;28.35;;;21.15;;
28007;SDS011;15333;50.010;20.020;2022-10-16T04:48:38;33.80;;;22.15;;
28007;SDS011;15333;50.010;20.020;2022-10-16T04:51:39;29.65;;;21.85;;
28007;SDS011;15333;50.010;20.020;2022-10-16T04:54:40;29.70;;;20.85;;
28007;SDS011;15333;50.010;20.020;2022-10-16T04:57:41;31.02;;;22.27;;
28007;SDS011;15333;50.010;20.020;2022-10-16T05:00:41;32.10;;;22.23;;
28007;SDS011;15333;50.010;20.020;2022-10-16T05:03:42;31.70;;;23.02;;
28007;SDS011;15333;50.010;20.020;2022-10-16T05:06:43;36.88;;;23.40;;
28007;SDS011;15333;50.010;20.020;2022-10-16T05:09:44;36.95;;;23.40;;
28007;SDS011;15333;50.010;20.020;2022-10-16T05:12:45;33.85;;;24.77;;
28007;SDS011;15333;50.010;20.020;2022-10-16T05:15:47;38.50;;;23.95;;
28007;SDS011;15333;50.010;20.020;2022-10-16T05:18:48;36.17;;;24.65;;
28007;SDS011;15333;50.010;20.020;2022-10-16T05:21:49;36.00;;;23.75;;
28007;SDS011;15333;50.010;20.020;2022-10-16T05:24:50;34.30;;;22.90;;
28007;SDS011;15333;50.010;20.020;2022-10-16T05:27:51;29.42;;;22.05;;
28007;SDS011;15333;50.010;20.020;2022-10-16T05:30:52;30.85;;;21.35;;
28007;SDS011;15333;50.010;20.020;2022-10-16T05:33:57;33.90;;;22.48;;
28007;SDS011;15333;50.010;20.020;2022-10-16T05:37:01;37.85;;;22.23;;
28007;SDS011;15333;50.010;20.020;2022-10-16T05:40:02;31.20;;;22.70;;
28007;SDS011;15333;50.010;20.020;2022-10-16T05:43:05;35.95;;;22.77;;
28007;SDS011;15333;50.010;20.020;2022-10-16T05:46:06;30.98;;;22.77;;
28007;SDS011;15333;50.010;20.020;2022-10-16T05:49:06;36.05;;;23.08;;
28007;SDS011;15333;50.010;20.020;2022-10-16T05:52:07;37.38;;;23.65;;
28007;SDS011;15333;50.010;20.020;2022-10-16T05:55:08;35.63;;;22.08;;
28007;SDS011;15333;50.010;20.020;2022-10-16T05:58:09;33.22;;;21.92;;
28007;SDS011;15333;50.010;20.020;2022-10-16T06:01:11;32.55;;;21.63;;
28007;SDS011;15333;50.010;20.020;2022-10-16T06:04:15;31.67;;;20.98;;
28007;SDS011;15333;50.010;20.020;2022-10-16T06:07:15;39.47;;;22.08;;
28007;SDS011;15333;50.010;20.020;2022-10-16T06:10:16;31.70;;;21.20;;
28007;SDS011;15333;50.010;20.020;2022-10-16T06:13:17;37.47;;;22.65;;
28007;SDS011;15333;50.010;20.020;2022-10-16T06:16:19;30.85;;;21.05;;
28007;SDS011;15333;50.010;20.020;2022-10-16T06:19:20;31.75;;;21.60;;
28007;SDS011;15333;50.010;20.020;2022-10-16T06:22:21;34.97;;;21.77;;
28007;SDS011;15333;50.010;20.020;2022-10-16T06:25:22;34.53;;;20.23;;
28007;SDS011;15333;50.010;20.020;2022-10-16T06:28:23;32.20;;;20.35;;
28007;SDS011;15333;50.010;20.020;2022-10-16T06:31:24;26.23;;;19.23;;
28007;SDS011;15333;50.010;20.020;2022-10-16T06:34:27;33.70;;;19.02;;
28007;SDS011;15333;50.010;20.020;2022-10-16T06:37:28;28.15;;;18.90;;
28007;SDS011;15333;50.010;20.020;2022-10-16T06:40:29;33.53;;;19.73;;
28007;SDS011;15333;50.010;20.020;2022-10-16T06:43:30;31.48;;;20.30;;
28007;SDS011;15333;50.010;20.020;2022-10-16T06:46:32;31.02;;;18.75;;
28007;SDS011;15333;50.010;20.020;2022-10-16T06:49:34;29.10;;;18.27;;
28007;SDS011;15333;50.010;20.020;2022-10-16T06:52:35;37.42;;;18.98;;
28007;SDS011;15333;50.010;20.020;2022-10-16T06:55:36;26.23;;;18.33;;
28007;SDS011;15333;50.010;20.020;2022-10-16T06:58:37;26.40;;;17.98;;
28007;SDS011;15333;50.010;20.020;2022-10-16T07:01:38;25.52;;;17.05;;
28007;SDS011;15333;50.010;20.020;2022-10-16T07:04:39;22.77;;;14.63;;
28007;SDS011;15333;50.010;20.020;2022-10-16T07:07:40;21.30;;;14.90;;
28007;SDS011;15333;50.010;20.020;2022-10-16T07:10:41;21.85;;;14.85;;
28007;SDS011;15333;50.010;20.020;2022-10-16T07:13:42;21.45;;;14.80;;
28007;SDS011;15333;50.010;20.020;2022-10-16T07:16:44;17.50;;;12.80;;
28007;SDS011;15333;50.010;20.020;2022-10-16T07:19:45;19.02;;;12.38;;
28007;SDS011;15333;50.010;20.020;2022-10-16T07:22:46;17.75;;;13.52;;
28007;SDS011;15333;50.010;20.020;2022-10-16T07:25:52;17.92;;;12.27;;
28007;SDS011;15333;50.010;20.020;2022-10-16T07:28:54;16.13;;;10.77;;
28007;SDS011;15333;50.010;20.020;2022-10-16T07:31:55;18.58;;;12.00;;
28007;SDS011;15333;50.010;20.020;2022-10-16T07:34:56;18.92;;;13.25;;
28007;SDS011;15333;50.010;20.020;2022-10-16T07:37:57;23.75;;;14.73;;
28007;SDS011;15333;50.010;20.020;2022-10-16T07:40:58;16.83;;;12.60;;
28007;SDS011;15333;50.010;20.020;2022-10-16T07:44:00;23.88;;;15.52;;
28007;SDS011;15333;50.010;20.020;2022-10-16T07:47:01;17.92;;;12.65;;
28007;SDS011;15333;50.010;20.020;2022-10-16T07:50:03;17.65;;;11.23;;
28007;SDS011;15333;50.010;20.020;2022-10-16T07:53:04;14.70;;;11.48;;
28007;SDS011;15333;50.010;20.020;2022-10-16T07:56:05;16.75;;;12.52;;
28007;SDS011;15333;50.010;20.020;2022-10-16T07:59:07;14.55;;;11.13;;
28007;SDS011;15333;50.010;20.020;2022-10-16T08:02:07;16.95;;;10.85;;
28007;SDS011;15333;50.010;20.020;2022-10-16T08:05:08;27.13;;;18.63;;
28007;SDS011;15333;50.010;20.020;2022-10-16T08:08:13;28.73;;;20.05;;
28007;SDS011;15333;50.010;20.020;2022-10-16T08:11:15;32.08;;;21.63;;
28007;SDS011;15333;50.010;20.020;2022-10-16T08:14:16;25.45;;;18.85;;
28007;SDS011;15333;50.010;20.020;2022-10-16T08:17:17;24.25;;;17.75;;
28007;SDS011;15333;50.010;20.020;2022-10-16T08:20:18;25.52;;;17.75;;
28007;SDS011;15333;50.010;20.020;2022-10-16T08:23:19;25.25;;;18.05;;
28007;SDS011;15333;50.010;20.020;2022-10-16T08:26:19;30.35;;;19.48;;
28007;SDS011;15333;50.010;20.020;2022-10-16T08:29:20;26.58;;;18.40;;
28007;SDS011;15333;50.010;20.020;2022-10-16T08:32:21;28.50;;;17.83;;
28007;SDS011;15333;50.010;20.020;2022-10-16T08:35:22;27.92;;;19.40;;
28007;SDS011;15333;50.010;20.020;2022-10-16T08:38:23;26.23;;;18.80;;
28007;SDS011;15333;50.010;20.020;2022-10-16T08:41:31;31.20;;;18.38;;
28007;SDS011;15333;50.010;20.020;2022-10-16T08:51:18;24.10;;;17.42;;
28007;SDS011;15333;50.010;20.020;2022-10-16T08:57:46;17.02;;;11.90;;
28007;SDS011;15333;50.010;20.020;2022-10-16T09:00:47;24.95;;;13.75;;
28007;SDS011;15333;50.010;20.020;2022-10-16T09:07:20;18.40;;;10.65;;
28007;SDS011;15333;50.010;20.020;2022-10-16T09:14:07;14.60;;;9.27;;
28007;SDS011;15333;50.010;20.020;2022-10-16T09:24:12;10.73;;;8.38;;
28007;SDS011;15333;50.010;20.020;2022-10-16T09:27:16;13.00;;;8.88;;
28007;SDS011;15333;50.010;20.020;2022-10-16T09:30:18;10.43;;;8.52;;
28007;SDS011;15333;50.010;20.020;2022-10-16T09:33:22;15.73;;;9.30;;
28007;SDS011;15333;50.010;20.020;2022-10-16T09:36:28;12.80;;;9.00;;
28007;SDS011;15333;50.010;20.020;2022-10-16T09:39:47;11.27;;;8.05;;
28007;SDS011;15333;50.010;20.020;2022-10-16T09:43:20;13.85;;;7.97;;
28007;SDS011;15333;50.010;20.020;2022-10-16T09:46:39;14.32;;;9.00;;
28007;SDS011;15333;50.010;20.020;2022-10-16T09:49:50;10.93;;;8.90;;
28007;SDS011;15333;50.010;20.020;2022-10-16T09:53:08;13.35;;;8.88;;
28007;SDS011;15333;50.010;20.020;2022-10-16T09:56:20;11.60;;;8.73;;
28007;SDS011;15333;50.010;20.020;2022-10-16T09:59:26;13.98;;;9.85;;
28007;SDS011;15333;50.010;20.020;2022-10-16T10:02:35;14.48;;;9.23;;
28007;SDS011;15333;50.010;20.020;2022-10-16T10:05:38;14.25;;;9.43;;
28007;SDS011;15333;50.010;20.020;2022-10-16T10:08:40;13.52;;;8.68;;
28007;SDS011;15333;50.010;20.020;2022-10-16T10:14:56;10.25;;;8.70;;
28007;SDS011;15333;50.010;20.020;2022-10-16T10:17:58;12.50;;;9.80;;
28007;SDS011;15333;50.010;20.020;2022-10-16T10:21:00;12.80;;;9.00;;
28007;SDS011;15333;50.010;20.020;2022-10-16T10:24:02;13.43;;;8.95;;
28007;SDS011;15333;50.010;20.020;2022-10-16T10:27:08;12.45;;;9.20;;
28007;SDS011;15333;50.010;20.020;2022-10-16T10:37:37;15.25;;;8.95;;
28007;SDS011;15333;50.010;20.020;2022-10-16T10:47:40;14.45;;;8.63;;
28007;SDS011;15333;50.010;20.020;2022-10-16T10:50:49;11.80;;;8.40;;
28007;SDS011;15333;50.010;20.020;2022-10-16T10:54:14;11.18;;;7.97;;
28007;SDS011;15333;50.010;20.020;2022-10-16T10:57:28;12.43;;;8.73;;
28007;SDS011;15333;50.010;20.020;2022-10-16T11:04:11;12.38;;;9.77;;
28007;SDS011;15333;50.010;20.020;2022-10-16T11:07:32;12.45;;;9.15;;
28007;SDS011;15333;50.010;20.020;2022-10-16T11:10:48;11.18;;;8.70;;
28007;SDS011;15333;50.010;20.020;2022-10-16T11:20:26;17.10;;;10.35;;
28007;SDS011;15333;50.010;20.020;2022-10-16T11:23:38;12.63;;;8.93;;
28007;SDS011;15333;50.010;20.020;2022-10-16T11:26:44;13.32;;;8.30;;
28007;SDS011;15333;50.010;20.020;2022-10-16T11:29:58;10.02;;;7.93;;
28007;SDS011;15333;50.010;20.020;2022-10-16T11:36:19;11.00;;;7.80;;
28007;SDS011;15333;50.010;20.020;2022-10-16T11:39:30;10.57;;;8.25;;
28007;SDS011;15333;50.010;20.020;2022-10-16T11:42:34;10.07;;;7.43;;
28007;SDS011;15333;50.010;20.020;2022-10-16T11:45:48;10.55;;;7.75;;
28007;SDS011;15333;50.010;20.020;2022-10-16T11:49:03;11.80;;;8.27;;
28007;SDS011;15333;50.010;20.020;2022-10-16T11:58:53;10.10;;;7.75;;
28007;SDS011;15333;50.010;20.020;2022-10-16T12:02:11;10.93;;;7.65;;
28007;SDS011;15333;50.010;20.020;2022-10-16T12:08:49;8.27;;;7.00;;
28007;SDS011;15333;50.010;20.020;2022-10-16T12:11:51;9.65;;;7.32;;
28007;SDS011;15333;50.010;20.020;2022-10-16T12:14:59;10.55;;;7.00;;
28007;SDS011;15333;50.010;20.020;2022-10-16T12:18:22;11.20;;;8.13;;
28007;SDS011;15333;50.010;20.020;2022-10-16T12:21:29;10.45;;;8.82;;
28007;SDS011;15333;50.010;20.020;2022-10-16T12:24:35;8.45;;;6.80;;
28007;SDS011;15333;50.010;20.020;2022-10-16T12:27:38;14.82;;;8.48;;
28007;SDS011;15333;50.010;20.020;2022-10-16T12:30:39;14.85;;;10.27;;
28007;SDS011;15333;50.010;20.020;2022-10-16T12:33:42;10.98;;;7.20;;
28007;SDS011;15333;50.010;20.020;2022-10-16T12:37:07;11.05;;;8.23;;
28007;SDS011;15333;50.010;20.020;2022-10-16T12:40:15;11.07;;;7.47;;
28007;SDS011;15333;50.010;20.020;2022-10-16T12:49:37;14.25;;;8.40;;
28007;SDS011;15333;50.010;20.020;2022-10-16T12:52:40;11.00;;;7.07;;
28007;SDS011;15333;50.010;20.020;2022-10-16T12:55:42;8.35;;;6.50;;
28007;SDS011;15333;50.010;20.020;2022-10-16T13:09:22;7.85;;;5.95;;
28007;SDS011;15333;50.010;20.020;2022-10-16T13:12:40;10.15;;;6.38;;
28007;SDS011;15333;50.010;20.020;2022-10-16T13:16:03;9.25;;;6.55;;
28007;SDS011;15333;50.010;20.020;2022-10-16T13:22:48;8.27;;;6.60;;
28007;SDS011;15333;50.010;20.020;2022-10-16T13:29:21;8.60;;;6.97;;
28007;SDS011;15333;50.010;20.020;2022-10-16T13:32:22;10.05;;;6.32;;
28007;SDS011;15333;50.010;20.020;2022-10-16T13:35:25;10.30;;;7.03;;
28007;SDS011;15333;50.010;20.020;2022-10-16T13:38:30;7.72;;;5.97;;
28007;SDS011;15333;50.010;20.020;2022-10-16T13:41:35;12.15;;;7.60;;
28007;SDS011;15333;50.010;20.020;2022-10-16T13:44:40;9.95;;;7.68;;
28007;SDS011;15333;50.010;20.020;2022-10-16T13:47:43;9.55;;;6.55;;
28007;SDS011;15333;50.010;20.020;2022-10-16T13:50:44;13.05;;;7.65;;
28007;SDS011;15333;50.010;20.020;2022-10-16T13:53:45;11.45;;;6.70;;
28007;SDS011;15333;50.010;20.020;2022-10-16T13:56:47;9.50;;;6.95;;
28007;SDS011;15333;50.010;20.020;2022-10-16T13:59:47;13.02;;;7.05;;
28007;SDS011;15333;50.010;20.020;2022-10-16T14:02:54;10.88;;;6.57;;
28007;SDS011;15333;50.010;20.020;2022-10-16T14:06:00;10.57;;;7.15;;
28007;SDS011;15333;50.010;20.020;2022-10-16T14:09:07;10.90;;;6.50;;
28007;SDS011;15333;50.010;20.020;2022-10-16T14:12:13;8.98;;;6.68;;
28007;SDS011;15333;50.010;20.020;2022-10-16T14:15:17;9.23;;;6.75;;
28007;SDS011;15333;50.010;20.020;2022-10-16T14:18:20;12.23;;;6.30;;
28007;SDS011;15333;50.010;20.020;2022-10-16T14:21:23;10.80;;;6.18;;
28007;SDS011;15333;50.010;20.020;2022-10-16T14:24:34;9.82;;;6.32;;
28007;SDS011;15333;50.010;20.020;2022-10-16T14:30:37;8.35;;;6.10;;
28007;SDS011;15333;50.010;20.020;2022-10-16T14:33:49;10.77;;;5.97;;
28007;SDS011;15333;50.010;20.020;2022-10-16T14:36:50;10.82;;;6.15;;
28007;SDS011;15333;50.010;20.020;2022-10-16T14:39:51;9.05;;;6.28;;
28007;SDS011;15333;50.010;20.020;2022-10-16T14:42:53;13.23;;;5.90;;
28007;SDS011;15333;50.010;20.020;2022-10-16T14:45:55;12.50;;;6.03;;
28007;SDS011;15333;50.010;20.020;2022-10-16T14:49:19;10.93;;;6.45;;
28007;SDS011;15333;50.010;20.020;2022-10-16T14:52:20;8.10;;;6.15;;
28007;SDS011;15333;50.010;20.020;2022-10-16T14:55:21;6.97;;;5.78;;
28007;SDS011;15333;50.010;20.020;2022-10-16T14:58:22;9.38;;;6.35;;
28007;SDS011;15333;50.010;20.020;2022-10-16T15:01:25;13.68;;;7.95;;
28007;SDS011;15333;50.010;20.020;2022-10-16T15:04:26;12.95;;;7.63;;
28007;SDS011;15333;50.010;20.020;2022-10-16T15:07:27;8.65;;;6.80;;
28007;SDS011;15333;50.010;20.020;2022-10-16T15:10:28;11.88;;;7.20;;
28007;SDS011;15333;50.010;20.020;2022-10-16T15:13:30;12.23;;;8.13;;
28007;SDS011;15333;50.010;20.020;2022-10-16T15:16:31;11.88;;;7.60;;
28007;SDS011;15333;50.010;20.020;2022-10-16T15:19:32;11.98;;;7.63;;
28007;SDS011;15333;50.010;20.020;2022-10-16T15:22:34;13.55;;;8.05;;
28007;SDS011;15333;50.010;20.020;2022-10-16T15:25:37;15.10;;;8.13;;
28007;SDS011;15333;50.010;20.020;2022-10-16T15:28:42;11.52;;;7.57;;
28007;SDS011;15333;50.010;20.020;2022-10-16T15:31:43;15.68;;;8.73;;
28007;SDS011;15333;50.010;20.020;2022-10-16T15:34:45;13.32;;;8.88;;
28007;SDS011;15333;50.010;20.020;2022-10-16T15:37:46;14.00;;;8.30;;
28007;SDS011;15333;50.010;20.020;2022-10-16T15:40:49;11.20;;;8.25;;
28007;SDS011;15333;50.010;20.020;2022-10-16T15:43:50;10.57;;;8.23;;
28007;SDS011;15333;50.010;20.020;2022-10-16T15:46:54;14.88;;;8.30;;
28007;SDS011;15333;50.010;20.020;2022-10-16T15:49:54;12.73;;;8.70;;
28007;SDS011;15333;50.010;20.020;2022-10-16T15:52:56;13.70;;;9.18;;
28007;SDS011;15333;50.010;20.020;2022-10-16T15:55:56;14.23;;;9.63;;
28007;SDS011;15333;50.010;20.020;2022-10-16T15:58:57;16.52;;;9.23;;
28007;SDS011;15333;50.010;20.020;2022-10-16T16:01:59;16.50;;;9.40;;
28007;SDS011;15333;50.010;20.020;2022-10-16T16:05:00;14.30;;;9.60;;
28007;SDS011;15333;50.010;20.020;2022-10-16T16:08:02;17.33;;;10.90;;
28007;SDS011;15333;50.010;20.020;2022-10-16T16:14:05;17.98;;;10.23;;
28007;SDS011;15333;50.010;20.020;2022-10-16T16:17:07;14.90;;;10.27;;
28007;SDS011;15333;50.010;20.020;2022-10-16T16:20:08;22.17;;;11.40;;
28007;SDS011;15333;50.010;20.020;2022-10-16T16:23:10;19.35;;;11.60;;
28007;SDS011;15333;50.010;20.020;2022-10-16T16:26:12;33.85;;;13.07;;
28007;SDS011;15333;50.010;20.020;2022-10-16T16:29:15;21.02;;;11.98;;
28007;SDS011;15333;50.010;20.020;2022-10-16T16:32:16;21.40;;;12.40;;
28007;SDS011;15333;50.010;20.020;2022-10-16T16:35:17;18.00;;;12.82;;
28007;SDS011;15333;50.010;20.020;2022-10-16T16:38:18;27.10;;;14.02;;
28007;SDS011;15333;50.010;20.020;2022-10-16T16:41:20;22.23;;;15.73;;
28007;SDS011;15333;50.010;20.020;2022-10-16T16:44:23;28.42;;;16.38;;
28007;SDS011;15333;50.010;20.020;2022-10-16T16:47:24;32.97;;;17.35;;
28007;SDS011;15333;50.010;20.020;2022-10-16T16:50:25;29.58;;;17.05;;
28007;SDS011;15333;50.010;20.020;2022-10-16T16:53:26;26.23;;;16.58;;
28007;SDS011;15333;50.010;20.020;2022-10-16T16:56:27;29.48;;;16.05;;
28007;SDS011;15333;50.010;20.020;2022-10-16T16:59:28;32.40;;;16.67;;
28007;SDS011;15333;50.010;20.020;2022-10-16T17:02:33;28.08;;;16.60;;
28007;SDS011;15333;50.010;20.020;2022-10-16T17:05:34;27.00;;;16.35;;
28007;SDS011;15333;50.010;20.020;2022-10-16T17:08:34;21.92;;;14.75;;
28007;SDS011;15333;50.010;20.020;2022-10-16T17:11:36;22.17;;;14.30;;
28007;SDS011;15333;50.010;20.020;2022-10-16T17:14:37;24.40;;;14.52;;
28007;SDS011;15333;50.010;20.020;2022-10-16T17:17:38;27.35;;;14.30;;
28007;SDS011;15333;50.010;20.020;2022-10-16T17:20:39;22.05;;;13.98;;
28007;SDS011;15333;50.010;20.020;2022-10-16T17:23:41;21.63;;;13.70;;
28007;SDS011;15333;50.010;20.020;2022-10-16T17:26:41;23.35;;;15.30;;
28007;SDS011;15333;50.010;20.020;2022-10-16T17:29:51;24.38;;;14.85;;
28007;SDS011;15333;50.010;20.020;2022-10-16T17:32:52;22.85;;;15.15;;
28007;SDS011;15333;50.010;20.020;2022-10-16T17:35:53;24.88;;;15.60;;
28007;SDS011;15333;50.010;20.020;2022-10-16T17:38:54;23.98;;;15.48;;
28007;SDS011;15333;50.010;20.020;2022-10-16T17:41:55;22.92;;;15.93;;
28007;SDS011;15333;50.010;20.020;2022-10-16T17:44:56;24.70;;;15.05;;
28007;SDS011;15333;50.010;20.020;2022-10-16T17:47:58;23.33;;;16.23;;
28007;SDS011;15333;50.010;20.020;2022-10-16T17:50:59;27.40;;;16.95;;
28007;SDS011;15333;50.010;20.020;2022-10-16T17:54:04;24.08;;;15.52;;
28007;SDS011;15333;50.010;20.020;2022-10-16T17:57:06;25.52;;;16.88;;
28007;SDS011;15333;50.010;20.020;2022-10-16T18:00:07;22.05;;;16.27;;
28007;SDS011;15333;50.010;20.020;2022-10-16T18:03:08;22.55;;;17.05;;
28007;SDS011;15333;50.010;20.020;2022-10-16T18:06:09;24.98;;;15.90;;
28007;SDS011;15333;50.010;20.020;2022-10-16T18:09:14;21.38;;;15.40;;
28007;SDS011;15333;50.010;20.020;2022-10-16T18:12:17;20.48;;;15.15;;
28007;SDS011;15333;50.010;20.020;2022-10-16T18:15:18;25.48;;;15.93;;
28007;SDS011;15333;50.010;20.020;2022-10-16T18:18:19;24.92;;;15.93;;
28007;SDS011;15333;50.010;20.020;2022-10-16T18:21:20;22.85;;;15.65;;
28007;SDS011;15333;50.010;20.020;2022-10-16T18:24:21;22.80;;;15.65;;
28007;SDS011;15333;50.010;20.020;2022-10-16T18:27:25;26.92;;;15.75;;
28007;SDS011;15333;50.010;20.020;2022-10-16T18:30:26;23.35;;;15.68;;
28007;SDS011;15333;50.010;20.020;2022-10-16T18:33:28;23.73;;;15.65;;
28007;SDS011;15333;50.010;20.020;2022-10-16T18:36:33;26.10;;;15.70;;
28007;SDS011;15333;50.010;20.020;2022-10-16T18:39:34;23.92;;;16.08;;
28007;SDS011;15333;50.010;20.020;2022-10-16T18:42:35;24.80;;;16.33;;
28007;SDS011;15333;50.010;20.020;2022-10-16T18:45:36;23.83;;;16.13;;
28007;SDS011;15333;50.010;20.020;2022-10-16T18:48:39;27.13;;;15.75;;
28007;SDS011;15333;50.010;20.020;2022-10-16T18:51:40;24.15;;;16.55;;
28007;SDS011;15333;50.010;20.020;2022-10-16T18:54:42;27.33;;;16.77;;
28007;SDS011;15333;50.010;20.020;2022-10-16T18:57:43;23.83;;;15.60;;
28007;SDS011;15333;50.010;20.020;2022-10-16T19:00:44;25.13;;;16.55;;
28007;SDS011;15333;50.010;20.020;2022-10-16T19:03:45;23.75;;;16.20;;
28007;SDS011;15333;50.010;20.020;2022-10-16T19:06:48;24.35;;;16.10;;
28007;SDS011;15333;50.010;20.020;2022-10-16T19:09:52;23.25;;;15.95;;
28007;SDS011;15333;50.010;20.020;2022-10-16T19:12:53;24.10;;;16.05;;
28007;SDS011;15333;50.010;20.020;2022-10-16T19:15:54;26.95;;;17.08;;
28007;SDS011;15333;50.010;20.020;2022-10-16T19:18:56;21.63;;;16.00;;
28007;SDS011;15333;50.010;20.020;2022-10-16T19:21:58;27.38;;;16.35;;
28007;SDS011;15333;50.010;20.020;2022-10-16T19:25:14;25.45;;;18.08;;
28007;SDS011;15333;50.010;20.020;2022-10-16T19:28:15;24.77;;;17.70;;
28007;SDS011;15333;50.010;20.020;2022-10-16T19:31:18;29.95;;;17.70;;
28007;SDS011;15333;50.010;20.020;2022-10-16T19:34:20;26.92;;;15.95;;
28007;SDS011;15333;50.010;20.020;2022-10-16T19:37:21;22.02;;;16.80;;
28007;SDS011;15333;50.010;20.020;2022-10-16T19:40:25;25.30;;;16.52;;